Time;durP1;ratioP1;P1;durP2;ratioP2;P2;SDS_P1;SDS_P2;PMS_P1;PMS_P2;Temp;Humidity;BMP_temperature;BMP_pressure;BME280_temperature;BME280_humidity;BME280_pressure;Samples;Min_cycle;Max_cycle;Signal;HPM_P1;HPM_P2
2021/07/21 00:00:25;;;;;;;8.48;3.42;;;14.00;80.90;;;;;;6180809;23;20052;-76
2021/07/21 00:02:53;;;;;;;9.35;3.38;;;13.90;81.00;;;;;;6186529;23;20324;-76
2021/07/21 00:05:25;;;;;;;7.80;3.65;;;13.80;81.20;;;;;;6185226;23;20112;-76
2021/07/21 00:07:55;;;;;;;6.88;3.00;;;13.80;81.40;;;;;;6184003;23;20080;-76
2021/07/21 00:10:31;;;;;;;6.88;3.38;;;13.70;81.50;;;;;;6185994;23;20036;-76
2021/07/21 00:16:00;;;;;;;7.22;3.10;;;13.60;82.00;;;;;;6187940;23;20032;-77
2021/07/21 00:18:32;;;;;;;9.15;3.70;;;13.60;82.20;;;;;;6188417;23;20029;-77
2021/07/21 00:21:00;;;;;;;;;;;13.50;82.40;;;;;;6183618;23;20040;-76
2021/07/21 00:23:35;;;;;;;6.93;3.00;;;13.40;82.10;;;;;;6186434;23;19920;-76
2021/07/21 00:26:03;;;;;;;8.18;2.72;;;13.30;82.50;;;;;;6183829;23;20020;-75
2021/07/21 00:28:30;;;;;;;5.47;2.60;;;13.20;82.60;;;;;;6214749;23;20340;-75
2021/07/21 00:31:04;;;;;;;9.65;3.20;;;13.20;82.70;;;;;;6214224;23;20039;-75
2021/07/21 00:33:31;;;;;;;6.75;3.03;;;13.20;82.90;;;;;;6216749;23;20328;-75
2021/07/21 00:35:59;;;;;;;9.05;3.53;;;13.20;83.10;;;;;;6186901;23;20174;-75
2021/07/21 00:38:26;;;;;;;6.82;3.25;;;13.10;83.30;;;;;;6192937;23;20391;-75
2021/07/21 00:40:55;;;;;;;9.38;2.83;;;13.10;83.40;;;;;;6214581;23;20086;-75
2021/07/21 00:43:23;;;;;;;9.70;3.13;;;13.00;83.50;;;;;;6214055;23;20193;-75
2021/07/21 00:45:50;;;;;;;7.82;3.38;;;13.00;83.60;;;;;;6214914;23;20027;-75
2021/07/21 00:48:18;;;;;;;7.65;3.25;;;13.00;83.80;;;;;;6192906;23;20032;-75
2021/07/21 00:50:46;;;;;;;9.38;3.50;;;13.00;83.70;;;;;;6215369;23;20025;-75
2021/07/21 00:53:13;;;;;;;7.43;3.33;;;13.00;83.70;;;;;;6211693;23;20427;-75
2021/07/21 00:55:41;;;;;;;10.65;3.65;;;12.90;83.90;;;;;;6184999;23;20036;-75
2021/07/21 00:58:09;;;;;;;7.13;3.13;;;12.80;84.20;;;;;;6189618;23;20029;-75
2021/07/21 01:00:38;;;;;;;9.23;2.75;;;12.70;84.20;;;;;;6209919;23;20063;-75
2021/07/21 01:03:06;;;;;;;7.28;3.33;;;12.80;84.10;;;;;;6213051;23;20044;-75
2021/07/21 01:05:41;;;;;;;7.82;3.10;;;12.80;84.10;;;;;;6193634;23;20240;-75
2021/07/21 01:08:12;;;;;;;6.25;2.53;;;12.80;84.20;;;;;;6212731;23;20028;-75
2021/07/21 01:11:12;;;;;;;7.68;3.35;;;12.70;84.40;;;;;;6189085;23;20028;-75
2021/07/21 01:13:49;;;;;;;6.95;2.90;;;12.60;84.70;;;;;;6213500;23;20099;-75
2021/07/21 01:16:20;;;;;;;8.25;3.47;;;12.60;85.10;;;;;;6215691;23;20077;-75
2021/07/21 01:18:58;;;;;;;7.82;3.10;;;12.60;84.80;;;;;;6186050;23;20103;-75
2021/07/21 01:21:56;;;;;;;8.50;3.10;;;12.60;84.70;;;;;;6212583;23;20284;-75
2021/07/21 01:24:28;;;;;;;6.18;2.72;;;12.80;84.60;;;;;;6187296;23;20202;-76
2021/07/21 01:27:22;;;;;;;5.97;2.63;;;12.90;84.40;;;;;;6214996;23;20095;-75
2021/07/21 01:29:54;;;;;;;9.38;3.45;;;12.80;84.70;;;;;;6185231;23;20028;-75
2021/07/21 01:32:27;;;;;;;6.63;3.45;;;12.80;84.80;;;;;;6191242;23;20028;-75
2021/07/21 01:35:05;;;;;;;8.00;2.78;;;12.70;84.90;;;;;;6216136;23;20025;-75
2021/07/21 01:37:34;;;;;;;7.72;2.85;;;12.70;85.10;;;;;;6214872;23;20084;-75
2021/07/21 01:40:07;;;;;;;8.00;3.25;;;12.60;85.10;;;;;;6188853;23;20050;-75
2021/07/21 01:42:36;;;;;;;9.63;3.17;;;12.70;84.90;;;;;;6219049;23;20017;-75
2021/07/21 01:45:07;;;;;;;8.07;3.42;;;12.60;85.10;;;;;;6186752;23;20028;-75
2021/07/21 01:47:36;;;;;;;8.57;3.23;;;12.50;85.40;;;;;;6193140;23;20021;-75
2021/07/21 01:50:07;;;;;;;9.45;4.03;;;12.50;85.30;;;;;;6192278;23;20028;-75
2021/07/21 01:52:34;;;;;;;7.30;3.45;;;12.50;85.20;;;;;;6216291;23;20025;-75
2021/07/21 01:55:05;;;;;;;6.85;3.25;;;12.50;85.40;;;;;;6213765;23;20048;-75
2021/07/21 01:57:42;;;;;;;8.27;3.17;;;12.50;85.10;;;;;;6188870;23;20244;-75
2021/07/21 02:00:28;;;;;;;6.82;3.10;;;12.50;85.10;;;;;;6185727;23;20124;-75
2021/07/21 02:02:57;;;;;;;6.50;3.15;;;12.50;85.20;;;;;;6189987;23;20071;-75
2021/07/21 02:05:43;;;;;;;10.73;3.75;;;12.50;85.40;;;;;;6215814;23;20036;-75
2021/07/21 02:08:11;;;;;;;7.95;3.13;;;12.40;85.30;;;;;;6216036;23;20028;-75
2021/07/21 02:10:39;;;;;;;6.35;3.05;;;12.40;85.10;;;;;;6188299;23;20024;-75
2021/07/21 02:13:17;;;;;;;7.20;2.50;;;12.30;85.40;;;;;;6187694;23;20028;-75
2021/07/21 02:15:52;;;;;;;8.05;2.92;;;12.30;85.10;;;;;;6190757;23;20030;-75
2021/07/21 02:18:25;;;;;;;6.13;3.05;;;12.20;85.50;;;;;;6216045;23;20017;-75
2021/07/21 02:20:54;;;;;;;8.05;3.45;;;12.20;85.70;;;;;;6215509;23;20024;-75
2021/07/21 02:23:28;;;;;;;7.65;4.38;;;12.10;85.90;;;;;;6187947;23;20036;-75
2021/07/21 02:26:16;;;;;;;7.47;3.05;;;12.10;85.80;;;;;;6214281;23;20511;-75
2021/07/21 02:28:46;;;;;;;6.30;3.20;;;12.20;85.80;;;;;;6179036;23;20033;-75
2021/07/21 02:31:20;;;;;;;8.77;3.40;;;12.20;85.80;;;;;;6184146;23;20021;-75
2021/07/21 02:33:52;;;;;;;7.10;2.70;;;12.20;86.00;;;;;;6179311;23;20300;-75
2021/07/21 02:36:24;;;;;;;7.15;3.22;;;12.10;86.00;;;;;;6183182;23;20021;-75
2021/07/21 02:38:53;;;;;;;7.63;3.17;;;12.10;86.20;;;;;;6183183;23;20358;-75
2021/07/21 02:41:21;;;;;;;10.43;3.13;;;12.10;86.20;;;;;;6183611;23;20044;-75
2021/07/21 02:43:51;;;;;;;6.28;2.85;;;12.10;86.30;;;;;;6186649;23;20024;-75
2021/07/21 02:46:19;;;;;;;6.15;2.90;;;12.00;86.20;;;;;;6181529;23;20354;-75
2021/07/21 02:48:47;;;;;;;7.95;3.17;;;12.00;86.30;;;;;;6186631;23;20048;-75
2021/07/21 02:51:27;;;;;;;9.02;3.22;;;12.00;86.30;;;;;;6179458;23;20201;-75
2021/07/21 02:54:03;;;;;;;9.30;3.30;;;11.90;86.30;;;;;;6179749;23;20225;-75
2021/07/21 02:56:48;;;;;;;8.35;3.20;;;11.90;86.60;;;;;;6184458;23;20116;-75
2021/07/21 02:59:22;;;;;;;7.13;3.38;;;11.90;86.70;;;;;;6181636;23;20252;-75
2021/07/21 03:01:52;;;;;;;6.45;3.17;;;11.90;86.70;;;;;;6178619;23;20028;-75
2021/07/21 03:04:39;;;;;;;8.00;3.55;;;11.80;86.80;;;;;;6181466;23;20051;-75
2021/07/21 03:07:23;;;;;;;8.23;3.55;;;11.90;86.80;;;;;;6182440;23;20017;-75
2021/07/21 03:09:52;;;;;;;;;;;11.80;86.80;;;;;;6183627;23;20379;-75
2021/07/21 03:12:22;;;;;;;7.68;2.97;;;11.80;86.60;;;;;;6182616;23;19935;-75
2021/07/21 03:15:34;;;;;;;9.48;2.80;;;11.70;86.90;;;;;;6170210;23;20067;-75
2021/07/21 03:18:05;;;;;;;7.78;3.28;;;11.70;87.20;;;;;;6182239;23;20028;-75
2021/07/21 03:20:35;;;;;;;8.00;3.35;;;11.70;87.10;;;;;;6186712;23;20035;-75
2021/07/21 03:23:10;;;;;;;6.82;3.53;;;11.70;86.90;;;;;;6185784;23;20029;-75
2021/07/21 03:25:42;;;;;;;7.50;3.08;;;11.60;86.90;;;;;;6183804;23;20227;-75
2021/07/21 03:28:10;;;;;;;9.80;3.60;;;11.60;87.10;;;;;;6182790;23;20080;-75
2021/07/21 03:31:01;;;;;;;7.47;3.25;;;11.60;87.10;;;;;;6183204;23;20035;-75
2021/07/21 03:33:37;;;;;;;6.40;3.22;;;11.50;87.30;;;;;;6184739;23;20472;-75
2021/07/21 03:36:10;;;;;;;7.55;3.30;;;11.50;87.10;;;;;;6186015;23;20265;-75
2021/07/21 03:39:10;;;;;;;8.05;3.13;;;11.50;87.30;;;;;;6190780;23;20039;-75
2021/07/21 03:41:52;;;;;;;7.53;3.00;;;11.50;87.20;;;;;;6184746;23;20068;-70
2021/07/21 03:44:22;;;;;;;6.82;3.25;;;11.50;87.30;;;;;;6182853;23;20115;-75
2021/07/21 03:46:53;;;;;;;6.32;3.25;;;11.60;86.90;;;;;;6184027;23;20025;-75
2021/07/21 03:49:22;;;;;;;6.65;2.55;;;11.60;87.00;;;;;;6190183;23;20025;-75
2021/07/21 03:52:01;;;;;;;5.88;3.33;;;11.60;86.80;;;;;;6183204;23;20029;-75
2021/07/21 03:54:38;;;;;;;7.32;3.28;;;11.50;86.90;;;;;;6188424;23;20084;-75
2021/07/21 03:57:20;;;;;;;10.13;3.85;;;11.50;87.00;;;;;;6187904;23;20024;-75
2021/07/21 03:59:48;;;;;;;8.25;3.10;;;11.50;87.00;;;;;;6185597;23;20079;-75
2021/07/21 04:02:18;;;;;;;7.85;3.83;;;11.50;86.90;;;;;;6179364;23;20021;-75
2021/07/21 04:04:48;;;;;;;5.68;2.92;;;11.40;86.90;;;;;;6182603;23;20228;-75
2021/07/21 04:07:20;;;;;;;7.35;3.05;;;11.50;86.70;;;;;;6184547;23;20266;-75
2021/07/21 04:09:59;;;;;;;8.38;3.50;;;11.40;86.50;;;;;;6182062;23;20033;-75
2021/07/21 04:12:34;;;;;;;10.48;3.58;;;11.50;86.10;;;;;;6185474;23;20036;-75
2021/07/21 04:15:07;;;;;;;7.32;2.67;;;11.40;86.30;;;;;;6184429;23;20284;-75
2021/07/21 04:17:47;;;;;;;7.63;3.58;;;11.40;86.40;;;;;;6183132;23;20025;-75
2021/07/21 04:20:24;;;;;;;7.75;3.28;;;11.40;86.50;;;;;;6183938;23;20029;-75
2021/07/21 04:22:53;;;;;;;7.25;2.92;;;11.60;86.50;;;;;;6182684;23;20161;-75
2021/07/21 04:25:22;;;;;;;;;;;11.60;86.20;;;;;;6185053;23;20021;-75
2021/07/21 04:27:57;;;;;;;7.45;2.60;;;11.60;86.10;;;;;;6113946;23;20254;-75
2021/07/21 04:30:30;;;;;;;10.85;3.42;;;11.60;86.10;;;;;;409378;23;10021761;-75
2021/07/21 04:33:00;;;;;;;10.10;3.50;;;11.70;86.00;;;;;;6181721;23;20063;-76
2021/07/21 04:35:32;;;;;;;7.13;3.70;;;11.70;85.80;;;;;;6182887;23;20033;-75
2021/07/21 04:38:08;;;;;;;8.70;4.50;;;11.70;85.90;;;;;;6183540;23;20021;-75
2021/07/21 04:41:01;;;;;;;9.15;3.30;;;11.70;86.00;;;;;;6171390;23;20033;-76
2021/07/21 04:43:55;;;;;;;6.93;3.35;;;11.70;86.10;;;;;;6183062;23;20033;-75
2021/07/21 04:46:33;;;;;;;9.00;3.55;;;11.70;86.10;;;;;;6183853;23;20064;-75
2021/07/21 04:49:09;;;;;;;8.85;2.85;;;11.80;85.90;;;;;;6185097;23;20024;-75
2021/07/21 04:51:39;;;;;;;8.98;3.40;;;11.80;86.00;;;;;;6183008;23;20036;-75
2021/07/21 04:54:15;;;;;;;8.43;3.35;;;11.80;86.00;;;;;;6182273;23;20048;-75
2021/07/21 04:56:43;;;;;;;7.68;3.50;;;11.70;86.10;;;;;;6183199;23;20036;-75
2021/07/21 04:59:13;;;;;;;7.57;3.58;;;11.70;86.10;;;;;;6182077;23;20028;-75
2021/07/21 05:01:43;;;;;;;7.40;3.67;;;11.80;86.10;;;;;;6176799;23;20080;-75
2021/07/21 05:04:12;;;;;;;8.57;3.08;;;11.90;85.90;;;;;;6184009;23;20048;-76
2021/07/21 05:07:08;;;;;;;9.70;3.58;;;11.90;86.00;;;;;;6183144;23;20029;-76
2021/07/21 05:09:47;;;;;;;7.03;2.88;;;12.00;85.90;;;;;;6184829;23;20017;-75
2021/07/21 05:12:15;;;;;;;7.30;3.50;;;12.00;85.60;;;;;;6186764;23;20028;-75
2021/07/21 05:14:51;;;;;;;9.90;4.70;;;12.00;85.60;;;;;;6186808;23;20036;-75
2021/07/21 05:17:30;;;;;;;8.57;3.38;;;12.10;85.40;;;;;;6185617;23;20084;-76
2021/07/21 05:20:01;;;;;;;6.40;3.37;;;12.20;85.30;;;;;;6183483;23;20029;-76
2021/07/21 05:22:34;;;;;;;7.05;3.53;;;12.20;85.20;;;;;;6189198;23;20024;-77
2021/07/21 05:25:02;;;;;;;8.00;3.83;;;12.30;85.10;;;;;;6183203;23;20108;-76
2021/07/21 05:27:43;;;;;;;7.10;3.22;;;12.40;85.00;;;;;;6181843;23;20029;-75
2021/07/21 05:30:13;;;;;;;7.03;3.47;;;12.40;84.80;;;;;;6185303;23;20068;-76
2021/07/21 05:33:06;;;;;;;7.30;3.35;;;12.60;84.70;;;;;;6185569;23;20080;-75
2021/07/21 05:35:36;;;;;;;8.15;3.65;;;12.70;84.50;;;;;;6185746;23;20032;-75
2021/07/21 05:38:12;;;;;;;6.65;3.33;;;12.80;84.00;;;;;;6185610;23;20025;-76
2021/07/21 05:40:40;;;;;;;7.53;3.67;;;12.90;83.80;;;;;;6185156;23;20028;-76
2021/07/21 05:43:33;;;;;;;9.68;3.70;;;12.90;83.60;;;;;;6189815;23;20351;-76
2021/07/21 05:46:06;;;;;;;8.38;3.72;;;13.00;83.60;;;;;;6187130;23;20061;-75
2021/07/21 05:48:39;;;;;;;8.13;3.20;;;13.10;83.40;;;;;;6184993;23;20140;-75
2021/07/21 05:51:37;;;;;;;8.60;3.45;;;13.20;83.20;;;;;;6178599;23;20039;-75
2021/07/21 05:54:15;;;;;;;6.87;3.37;;;13.30;82.90;;;;;;6187736;23;20055;-76
2021/07/21 05:56:42;;;;;;;10.02;4.05;;;13.40;82.80;;;;;;6183806;23;20420;-76
2021/07/21 05:59:16;;;;;;;8.65;3.58;;;13.50;82.60;;;;;;6182387;23;20162;-76
2021/07/21 06:01:44;;;;;;;11.77;3.10;;;13.60;82.50;;;;;;6181466;23;20029;-76
2021/07/21 06:04:11;;;;;;;7.80;3.80;;;13.60;82.50;;;;;;6184448;23;20035;-75
2021/07/21 06:07:18;;;;;;;6.35;3.45;;;13.70;82.10;;;;;;6186229;23;20075;-76
2021/07/21 06:10:17;;;;;;;9.07;4.15;;;13.90;82.30;;;;;;6184477;23;20039;-75
2021/07/21 06:12:54;;;;;;;9.90;3.47;;;14.00;81.80;;;;;;6182069;23;20072;-76
2021/07/21 06:15:26;;;;;;;7.38;3.40;;;14.00;81.70;;;;;;6181595;23;20021;-75
2021/07/21 06:17:54;;;;;;;8.32;4.03;;;14.10;81.60;;;;;;6181886;23;20337;-76
2021/07/21 06:20:26;;;;;;;7.20;3.50;;;14.20;81.50;;;;;;6180633;23;20091;-75
2021/07/21 06:22:55;;;;;;;8.77;3.45;;;14.30;81.60;;;;;;6181767;23;20312;-75
2021/07/21 06:25:25;;;;;;;7.88;3.90;;;14.50;80.90;;;;;;6180875;23;20028;-75
2021/07/21 06:28:19;;;;;;;9.02;4.30;;;14.60;80.80;;;;;;6208591;23;20028;-75
2021/07/21 06:30:47;;;;;;;7.13;3.40;;;14.70;80.40;;;;;;6214636;23;20028;-76
2021/07/21 06:33:23;;;;;;;7.97;3.22;;;14.90;80.40;;;;;;6186452;23;20328;-77
2021/07/21 06:35:50;;;;;;;7.47;3.47;;;15.00;80.00;;;;;;6216845;23;20028;-77
2021/07/21 06:38:20;;;;;;;8.63;3.67;;;15.10;79.20;;;;;;6185792;23;20270;-77
2021/07/21 06:41:06;;;;;;;9.38;3.30;;;15.20;78.80;;;;;;6213123;23;20082;-75
2021/07/21 06:43:40;;;;;;;8.68;3.85;;;15.40;78.20;;;;;;6214801;23;20354;-78
2021/07/21 06:46:14;;;;;;;6.30;3.10;;;15.70;77.80;;;;;;6189599;23;20332;-78
2021/07/21 06:48:45;;;;;;;8.77;3.63;;;15.90;76.90;;;;;;6191349;23;20024;-78
2021/07/21 06:51:13;;;;;;;6.72;3.30;;;16.10;76.30;;;;;;6215046;23;20585;-77
2021/07/21 06:53:43;;;;;;;8.60;3.65;;;16.10;76.20;;;;;;6187501;23;20323;-77
2021/07/21 06:56:13;;;;;;;8.77;3.55;;;16.30;75.70;;;;;;6214595;23;20209;-76
2021/07/21 06:58:53;;;;;;;6.88;3.50;;;16.40;75.30;;;;;;6190306;23;20024;-76
2021/07/21 07:01:23;;;;;;;5.95;3.15;;;16.60;74.50;;;;;;6184534;23;20072;-78
2021/07/21 07:04:08;;;;;;;7.70;3.47;;;16.80;74.20;;;;;;6214237;23;20063;-76
2021/07/21 07:06:54;;;;;;;7.25;3.00;;;17.00;73.30;;;;;;6217216;23;20070;-76
2021/07/21 07:09:41;;;;;;;7.22;2.83;;;17.10;73.00;;;;;;6213307;23;20038;-76
2021/07/21 07:12:16;;;;;;;8.73;2.80;;;17.20;72.50;;;;;;6187369;23;20098;-76
2021/07/21 07:14:44;;;;;;;6.28;2.90;;;17.40;72.20;;;;;;6218625;23;20020;-76
2021/07/21 07:17:12;;;;;;;6.90;3.05;;;17.60;72.10;;;;;;6216278;23;20013;-76
2021/07/21 07:19:39;;;;;;;5.72;2.95;;;17.60;69.70;;;;;;6188016;23;20029;-76
2021/07/21 07:22:07;;;;;;;14.60;3.80;;;17.70;69.30;;;;;;6188081;23;20035;-76
2021/07/21 07:24:42;;;;;;;6.90;3.30;;;17.80;70.10;;;;;;6189649;23;20088;-76
2021/07/21 07:27:09;;;;;;;5.88;2.80;;;18.00;68.80;;;;;;6213487;23;20020;-76
2021/07/21 07:29:36;;;;;;;9.95;3.05;;;18.20;68.30;;;;;;6216129;23;20281;-76
2021/07/21 07:32:04;;;;;;;6.57;3.10;;;18.20;67.30;;;;;;6217515;23;20024;-77
2021/07/21 07:34:37;;;;;;;6.18;2.55;;;18.20;66.70;;;;;;6214596;23;20093;-75
2021/07/21 07:37:05;;;;;;;5.22;2.75;;;18.30;67.70;;;;;;6215203;23;20041;-78
2021/07/21 07:39:33;;;;;;;4.13;2.35;;;18.40;67.60;;;;;;6192090;23;20029;-77
2021/07/21 07:42:02;;;;;;;6.38;2.40;;;18.60;66.80;;;;;;6215068;23;20099;-77
2021/07/21 07:44:37;;;;;;;6.35;3.15;;;18.60;65.80;;;;;;6215032;23;20047;-77
2021/07/21 07:47:04;;;;;;;9.85;3.20;;;18.80;65.30;;;;;;6215909;23;20021;-77
2021/07/21 07:49:32;;;;;;;12.45;4.13;;;18.80;65.00;;;;;;6189924;23;20071;-77
2021/07/21 07:51:59;;;;;;;9.75;3.00;;;18.90;65.80;;;;;;6187705;23;20027;-77
2021/07/21 07:54:27;;;;;;;6.47;2.45;;;19.00;64.40;;;;;;6215619;23;20024;-77
2021/07/21 07:56:54;;;;;;;6.50;2.40;;;19.00;64.00;;;;;;6214348;23;20024;-77
2021/07/21 07:59:22;;;;;;;7.28;2.60;;;19.00;63.80;;;;;;6190362;23;20216;-77
2021/07/21 08:01:50;;;;;;;7.20;2.47;;;19.10;63.50;;;;;;6210944;23;20025;-77
2021/07/21 08:04:17;;;;;;;5.00;2.60;;;19.20;63.30;;;;;;6211725;23;20316;-77
2021/07/21 08:06:45;;;;;;;3.67;2.05;;;19.30;63.20;;;;;;6187185;23;20029;-76
2021/07/21 08:09:15;;;;;;;5.78;2.13;;;19.40;62.80;;;;;;6187298;23;20021;-76
2021/07/21 08:11:45;;;;;;;;;;;19.50;62.10;;;;;;6212945;23;20028;-78
2021/07/21 08:14:14;;;;;;;11.15;2.65;;;19.60;63.80;;;;;;6215251;23;19965;-77
2021/07/21 08:16:43;;;;;;;5.13;1.90;;;19.70;61.70;;;;;;6214699;23;20414;-75
2021/07/21 08:19:10;;;;;;;6.95;2.47;;;19.70;60.60;;;;;;6190726;23;20116;-76
2021/07/21 08:21:38;;;;;;;6.30;2.42;;;19.90;61.10;;;;;;6219153;23;20028;-75
2021/07/21 08:24:06;;;;;;;4.18;2.17;;;19.80;59.10;;;;;;6218644;23;20197;-76
2021/07/21 08:26:34;;;;;;;5.25;2.65;;;20.00;57.30;;;;;;6192443;23;20028;-76
2021/07/21 08:29:01;;;;;;;4.82;2.05;;;20.10;57.60;;;;;;6219969;23;20059;-76
2021/07/21 08:31:29;;;;;;;6.63;2.25;;;20.10;59.50;;;;;;6193773;23;20024;-76
2021/07/21 08:34:00;;;;;;;5.43;2.42;;;20.20;56.00;;;;;;6192580;23;20233;-77
2021/07/21 08:36:33;;;;;;;6.05;2.10;;;20.20;56.60;;;;;;6219977;23;20271;-76
2021/07/21 08:39:01;;;;;;;4.55;2.10;;;20.20;56.50;;;;;;6192428;23;20293;-76
2021/07/21 08:41:29;;;;;;;3.97;2.10;;;20.30;57.30;;;;;;6219141;23;20309;-76
2021/07/21 08:43:56;;;;;;;4.75;2.25;;;20.60;56.30;;;;;;6220094;23;20308;-76
2021/07/21 08:46:24;;;;;;;4.93;2.35;;;20.80;55.80;;;;;;6220023;23;20039;-76
2021/07/21 08:48:53;;;;;;;5.53;1.98;;;20.80;54.40;;;;;;6222080;23;20020;-76
2021/07/21 08:51:23;;;;;;;5.30;2.22;;;21.00;53.80;;;;;;6194444;23;20028;-77
2021/07/21 08:53:51;;;;;;;5.10;1.95;;;21.10;52.20;;;;;;6222933;23;20025;-75
2021/07/21 08:56:19;;;;;;;6.20;2.88;;;21.20;53.30;;;;;;6195165;23;20037;-77
2021/07/21 08:58:47;;;;;;;4.80;2.10;;;21.30;52.50;;;;;;6221917;23;20096;-76
2021/07/21 09:01:14;;;;;;;5.25;1.80;;;21.40;53.50;;;;;;6216151;23;20025;-76
2021/07/21 09:03:41;;;;;;;4.93;2.47;;;21.60;55.40;;;;;;6194746;23;20035;-76
2021/07/21 09:06:09;;;;;;;5.13;2.47;;;21.80;54.20;;;;;;6222097;23;20017;-76
2021/07/21 09:08:38;;;;;;;4.38;2.10;;;21.70;52.00;;;;;;6195253;23;20236;-76
2021/07/21 09:11:06;;;;;;;4.30;2.10;;;21.90;50.80;;;;;;6195591;23;20021;-75
2021/07/21 09:13:35;;;;;;;8.38;2.45;;;21.90;51.90;;;;;;6220068;23;20024;-76
2021/07/21 09:16:04;;;;;;;4.85;2.15;;;22.10;49.50;;;;;;6193642;23;20036;-77
2021/07/21 09:18:50;;;;;;;4.15;2.60;;;22.20;50.50;;;;;;6219620;23;20020;-76
2021/07/21 09:21:20;;;;;;;4.47;1.85;;;22.50;50.10;;;;;;6220282;23;20031;-76
2021/07/21 09:23:51;;;;;;;7.78;2.47;;;22.60;50.50;;;;;;6222252;23;20024;-74
2021/07/21 09:26:20;;;;;;;6.50;2.50;;;22.80;50.00;;;;;;6220907;23;20031;-76
2021/07/21 09:28:48;;;;;;;4.20;2.15;;;23.00;49.40;;;;;;6189330;23;20016;-75
2021/07/21 09:31:27;;;;;;;4.05;2.35;;;23.20;48.70;;;;;;6191560;23;20325;-75
2021/07/21 09:33:55;;;;;;;4.47;2.30;;;23.30;47.70;;;;;;6191786;23;20025;-76
2021/07/21 09:36:22;;;;;;;5.50;2.38;;;23.20;47.70;;;;;;6190116;23;20024;-77
2021/07/21 09:39:01;;;;;;;4.03;1.95;;;23.30;47.20;;;;;;6190324;23;20025;-77
2021/07/21 09:41:28;;;;;;;5.90;2.40;;;23.30;46.10;;;;;;6189914;23;20029;-77
2021/07/21 09:44:01;;;;;;;5.43;2.40;;;23.20;46.40;;;;;;6191705;23;20031;-76
2021/07/21 09:46:38;;;;;;;4.50;1.90;;;23.10;45.80;;;;;;6190392;23;20316;-76
2021/07/21 09:49:05;;;;;;;5.15;2.00;;;23.60;45.30;;;;;;6188629;23;20037;-76
2021/07/21 09:51:34;;;;;;;4.20;2.13;;;23.60;45.30;;;;;;6186989;23;20032;-76
2021/07/21 09:54:17;;;;;;;7.88;2.53;;;23.50;44.70;;;;;;6188488;23;20315;-76
2021/07/21 09:56:46;;;;;;;6.22;2.08;;;23.70;45.30;;;;;;6187948;23;20056;-76
2021/07/21 09:59:21;;;;;;;3.90;2.22;;;24.00;46.00;;;;;;6190410;23;20040;-77
2021/07/21 10:01:49;;;;;;;3.75;1.85;;;24.40;45.00;;;;;;6184918;23;20048;-77
2021/07/21 10:04:33;;;;;;;4.60;2.45;;;24.70;43.30;;;;;;6188498;23;20013;-76
2021/07/21 10:07:03;;;;;;;4.60;2.03;;;25.10;44.00;;;;;;6186612;23;20036;-76
2021/07/21 10:09:34;;;;;;;3.85;2.30;;;25.40;42.70;;;;;;6189125;23;20201;-76
2021/07/21 10:12:01;;;;;;;4.72;1.92;;;25.60;41.90;;;;;;6188110;23;20035;-76
2021/07/21 10:14:31;;;;;;;3.00;1.75;;;25.90;41.70;;;;;;6189302;23;20043;-76
2021/07/21 10:16:58;;;;;;;4.57;2.17;;;25.80;40.80;;;;;;6187657;23;20124;-76
2021/07/21 10:19:27;;;;;;;4.97;2.03;;;25.60;41.40;;;;;;6187387;23;20021;-76
2021/07/21 10:21:57;;;;;;;3.25;1.70;;;25.70;40.60;;;;;;6187641;23;20281;-75
2021/07/21 10:24:26;;;;;;;4.25;1.70;;;26.40;41.20;;;;;;6189244;23;20078;-76
2021/07/21 10:26:56;;;;;;;6.63;2.00;;;26.90;38.40;;;;;;6187406;23;20032;-76
2021/07/21 10:29:24;;;;;;;5.43;1.88;;;27.00;37.30;;;;;;6185297;23;20024;-76
2021/07/21 10:31:52;;;;;;;5.97;2.35;;;27.20;37.10;;;;;;6187645;23;20025;-77
2021/07/21 10:34:20;;;;;;;4.72;2.30;;;27.10;36.80;;;;;;6190053;23;20055;-76
2021/07/21 10:36:49;;;;;;;2.88;1.52;;;28.50;35.40;;;;;;6189532;23;20216;-76
2021/07/21 10:39:23;;;;;;;4.05;2.15;;;27.60;36.80;;;;;;6191368;23;20040;-76
2021/07/21 10:41:51;;;;;;;4.55;1.92;;;28.40;35.40;;;;;;6187750;23;20029;-77
2021/07/21 10:44:20;;;;;;;4.93;1.85;;;29.60;34.70;;;;;;6187465;23;20073;-76
2021/07/21 10:46:49;;;;;;;4.05;2.33;;;30.40;33.50;;;;;;6190014;23;20036;-77
2021/07/21 10:49:27;;;;;;;4.15;2.22;;;29.20;34.70;;;;;;6190687;23;20013;-76
2021/07/21 10:55:19;;;;;;;5.55;2.05;;;29.20;34.50;;;;;;6191371;23;20021;-76
2021/07/21 11:00:42;;;;;;;3.80;1.95;;;30.50;33.50;;;;;;6184185;23;20055;-76
2021/07/21 11:03:18;;;;;;;4.00;1.70;;;32.10;30.90;;;;;;6192374;23;20083;-76
2021/07/21 11:05:50;;;;;;;3.03;1.80;;;32.60;30.10;;;;;;6191964;23;20327;-76
2021/07/21 11:08:18;;;;;;;3.33;1.92;;;33.40;27.40;;;;;;6193194;23;20035;-76
2021/07/21 11:10:48;;;;;;;3.70;1.58;;;33.70;27.20;;;;;;6191895;23;20071;-75
2021/07/21 11:13:35;;;;;;;4.97;2.20;;;34.20;27.80;;;;;;6193721;23;20025;-76
2021/07/21 11:16:05;;;;;;;5.18;1.65;;;35.40;25.60;;;;;;6191907;23;20036;-77
2021/07/21 11:18:50;;;;;;;3.58;1.75;;;35.30;24.80;;;;;;6193676;23;20020;-77
2021/07/21 11:21:20;;;;;;;6.10;1.65;;;34.90;24.70;;;;;;6192256;23;20028;-76
2021/07/21 11:24:02;;;;;;;3.25;1.63;;;34.80;24.70;;;;;;6192031;23;20013;-76
2021/07/21 11:26:45;;;;;;;3.75;2.08;;;34.90;25.20;;;;;;6190092;23;20025;-76
2021/07/21 11:29:49;;;;;;;3.08;1.45;;;36.60;24.30;;;;;;6220942;23;20028;-76
2021/07/21 11:32:41;;;;;;;3.33;2.08;;;37.70;22.10;;;;;;6196383;23;20028;-76
2021/07/21 11:35:44;;;;;;;4.90;1.60;;;37.30;21.90;;;;;;6219947;23;20029;-77
2021/07/21 11:38:20;;;;;;;2.58;1.50;;;38.00;22.90;;;;;;6220096;23;20063;-77
2021/07/21 11:40:47;;;;;;;5.30;1.88;;;37.60;22.80;;;;;;6221823;23;20024;-77
2021/07/21 11:43:35;;;;;;;4.13;1.75;;;38.60;22.20;;;;;;6220813;23;20084;-77
2021/07/21 11:46:07;;;;;;;5.10;1.77;;;38.70;21.20;;;;;;6220980;23;20228;-77
2021/07/21 11:48:36;;;;;;;6.45;1.80;;;38.90;20.50;;;;;;6196662;23;20212;-77
2021/07/21 11:51:09;;;;;;;;;;;39.10;21.80;;;;;;6195797;23;20091;-77
2021/07/21 11:53:37;;;;;;;2.15;1.40;;;39.50;19.30;;;;;;6223142;23;20089;-77
2021/07/21 11:56:10;;;;;;;6.03;2.08;;;38.40;21.40;;;;;;6195167;23;20308;-77
2021/07/21 11:58:37;;;;;;;4.13;1.98;;;39.10;20.20;;;;;;6221910;23;20028;-77
2021/07/21 12:01:05;;;;;;;4.53;1.80;;;38.20;21.50;;;;;;6190126;23;20020;-77
2021/07/21 12:03:46;;;;;;;3.40;1.75;;;38.90;21.20;;;;;;6222030;23;20241;-77
2021/07/21 12:06:23;;;;;;;4.15;2.05;;;38.90;20.30;;;;;;6221682;23;20024;-77
2021/07/21 12:08:54;;;;;;;6.88;1.88;;;38.50;21.50;;;;;;6194077;23;20080;-77
2021/07/21 12:11:23;;;;;;;3.85;1.98;;;38.50;20.90;;;;;;6219656;23;20332;-77
2021/07/21 12:14:00;;;;;;;3.97;1.73;;;38.00;21.20;;;;;;6221114;23;20270;-77
2021/07/21 12:16:31;;;;;;;3.95;1.80;;;38.40;20.60;;;;;;6222206;23;20016;-76
2021/07/21 12:19:01;;;;;;;4.25;1.92;;;38.40;20.20;;;;;;6223849;23;20248;-77
2021/07/21 12:21:31;;;;;;;4.05;2.03;;;39.00;20.40;;;;;;6223264;23;20036;-77
2021/07/21 12:23:59;;;;;;;5.72;2.08;;;38.40;21.50;;;;;;6224392;23;20016;-77
2021/07/21 12:26:37;;;;;;;;;;;39.60;20.60;;;;;;6197931;23;20309;-77
2021/07/21 12:29:06;;;;;;;4.82;2.40;;;40.40;19.30;;;;;;6225126;23;19919;-77
2021/07/21 12:31:33;;;;;;;;;;;40.20;19.90;;;;;;6223826;23;20186;-77
2021/07/21 12:34:18;;;;;;;4.45;2.17;;;40.00;20.30;;;;;;6223661;23;20188;-77
2021/07/21 12:36:47;;;;;;;5.72;2.20;;;39.60;20.50;;;;;;6223548;23;20320;-77
2021/07/21 12:39:16;;;;;;;4.88;2.20;;;39.40;20.90;;;;;;6221987;23;20028;-77
2021/07/21 12:41:44;;;;;;;4.80;2.00;;;40.00;20.60;;;;;;6221992;23;20029;-76
2021/07/21 12:44:19;;;;;;;4.23;2.07;;;40.50;20.30;;;;;;6222968;23;20411;-77
2021/07/21 12:46:46;;;;;;;4.95;2.28;;;40.70;19.10;;;;;;6196441;23;20199;-76
2021/07/21 12:49:14;;;;;;;5.67;2.40;;;40.50;19.50;;;;;;6222643;23;20020;-76
2021/07/21 12:51:45;;;;;;;8.02;2.33;;;40.30;19.40;;;;;;6194861;23;20025;-77
2021/07/21 12:54:14;;;;;;;4.53;2.28;;;40.90;18.70;;;;;;6222788;23;20039;-76
2021/07/21 12:56:41;;;;;;;5.18;2.13;;;40.40;19.40;;;;;;6195024;23;20093;-77
2021/07/21 12:59:09;;;;;;;6.63;2.40;;;40.40;19.30;;;;;;6222682;23;20352;-77
2021/07/21 13:01:37;;;;;;;5.68;2.28;;;40.70;18.60;;;;;;6188972;23;20355;-77
2021/07/21 13:04:05;;;;;;;7.00;2.25;;;40.80;18.60;;;;;;6221911;23;20044;-77
2021/07/21 13:06:32;;;;;;;5.40;2.58;;;41.60;17.80;;;;;;6219035;23;20024;-77
2021/07/21 13:09:04;;;;;;;4.67;2.43;;;42.20;17.80;;;;;;6215344;23;20288;-78
2021/07/21 13:11:33;;;;;;;6.63;2.03;;;41.50;18.20;;;;;;6216395;23;20025;-77
2021/07/21 13:14:01;;;;;;;4.22;2.53;;;41.10;18.40;;;;;;6193818;23;20255;-77
2021/07/21 13:16:30;;;;;;;5.07;2.35;;;40.90;18.50;;;;;;6195419;23;20359;-77
2021/07/21 13:19:07;;;;;;;4.75;2.50;;;41.00;18.30;;;;;;6221226;23;20032;-77
2021/07/21 13:21:38;;;;;;;5.13;2.40;;;40.30;19.40;;;;;;6221587;23;20104;-77
2021/07/21 13:24:13;;;;;;;6.13;2.95;;;41.00;18.60;;;;;;6188828;23;20267;-77
2021/07/21 13:26:42;;;;;;;4.80;2.58;;;40.90;18.90;;;;;;6190310;23;20205;-78